createdAt,value
2023-05-13T00:00:18.325Z,101151.04
2023-05-13T00:03:06.507Z,101152.33
2023-05-13T00:05:34.206Z,101153.98
2023-05-13T00:08:06.952Z,101158.87
2023-05-13T00:10:35.707Z,101158.20
2023-05-13T00:13:03.423Z,101155.73
2023-05-13T00:15:31.777Z,101156.84
2023-05-13T00:17:59.570Z,101157.74
2023-05-13T00:20:27.470Z,101151.50
2023-05-13T00:22:55.745Z,101154.20
2023-05-13T00:25:23.399Z,101152.84
2023-05-13T00:27:51.602Z,101156.00
2023-05-13T00:30:21.172Z,101153.70
2023-05-13T00:32:49.145Z,101156.10
2023-05-13T00:35:16.872Z,101155.02
2023-05-13T00:37:45.046Z,101152.86
2023-05-13T00:40:22.196Z,101151.89
2023-05-13T00:42:50.635Z,101160.98
2023-05-13T00:45:18.619Z,101162.30
2023-05-13T00:47:47.534Z,101169.83
2023-05-13T00:50:15.650Z,101167.98
2023-05-13T00:52:44.308Z,101167.17
2023-05-13T00:55:12.405Z,101172.66
2023-05-13T00:57:42.905Z,101175.65
2023-05-13T01:00:11.357Z,101172.60
2023-05-13T01:02:39.023Z,101176.98
2023-05-13T01:05:47.964Z,101177.91
2023-05-13T01:08:57.101Z,101182.80
2023-05-13T01:11:28.594Z,101186.15
2023-05-13T01:14:06.840Z,101186.17
2023-05-13T01:16:49.274Z,101182.38
2023-05-13T01:19:44.437Z,101181.35
2023-05-13T01:22:13.265Z,101180.38
2023-05-13T01:24:41.160Z,101179.63
2023-05-13T01:27:09.509Z,101178.21
2023-05-13T01:29:38.004Z,101180.73
2023-05-13T01:32:07.629Z,101179.29
2023-05-13T01:34:36.689Z,101177.36
2023-05-13T01:37:05.020Z,101180.45
2023-05-13T01:39:35.013Z,101177.25
2023-05-13T01:42:04.440Z,101180.63
2023-05-13T01:44:32.365Z,101181.95
2023-05-13T01:47:00.310Z,101177.75
2023-05-13T01:49:28.099Z,101181.71
2023-05-13T01:51:56.099Z,101189.71
2023-05-13T01:54:25.696Z,101190.76
2023-05-13T01:56:56.230Z,101189.30
2023-05-13T01:59:24.045Z,101191.40
2023-05-13T02:01:51.973Z,101192.56
2023-05-13T02:04:19.744Z,101189.14
2023-05-13T02:06:47.750Z,101188.55
2023-05-13T02:09:16.252Z,101185.77
2023-05-13T02:11:45.581Z,101187.05
2023-05-13T02:14:13.245Z,101184.06
2023-05-13T02:16:40.958Z,101186.55
2023-05-13T02:19:08.745Z,101186.52
2023-05-13T02:21:36.505Z,101186.82
2023-05-13T02:24:04.365Z,101183.95
2023-05-13T02:26:32.588Z,101185.79
2023-05-13T02:29:00.447Z,101185.73
2023-05-13T02:31:28.228Z,101185.48
2023-05-13T02:33:56.099Z,101186.15
2023-05-13T02:36:24.079Z,101187.88
2023-05-13T02:38:52.056Z,101186.15
2023-05-13T02:41:20.229Z,101184.56
2023-05-13T02:43:48.288Z,101185.84
2023-05-13T02:46:16.266Z,101188.23
2023-05-13T02:48:44.807Z,101183.91
2023-05-13T02:51:12.526Z,101186.69
2023-05-13T02:53:41.731Z,101187.77
2023-05-13T02:56:09.712Z,101188.58
2023-05-13T02:58:37.566Z,101190.45
2023-05-13T03:01:05.393Z,101191.41
2023-05-13T03:03:33.777Z,101193.89
2023-05-13T03:06:02.054Z,101193.13
2023-05-13T03:08:30.008Z,101199.86
2023-05-13T03:10:59.042Z,101194.65
2023-05-13T03:13:26.939Z,101199.14
2023-05-13T03:15:54.869Z,101196.15
2023-05-13T03:18:22.756Z,101196.88
2023-05-13T03:20:50.570Z,101197.08
2023-05-13T03:23:19.702Z,101192.73
2023-05-13T03:25:48.174Z,101195.02
2023-05-13T03:28:15.939Z,101193.73
2023-05-13T03:30:44.620Z,101195.38
2023-05-13T03:33:18.256Z,101195.88
2023-05-13T03:35:48.514Z,101198.34
2023-05-13T03:38:16.772Z,101196.14
2023-05-13T03:40:47.157Z,101193.04
2023-05-13T03:43:15.332Z,101193.90
2023-05-13T03:45:48.351Z,101200.44
2023-05-13T03:48:18.570Z,101204.77
2023-05-13T03:50:46.588Z,101203.54
2023-05-13T03:53:15.987Z,101208.29
2023-05-13T03:55:43.774Z,101211.38
2023-05-13T03:58:16.188Z,101210.10
2023-05-13T04:00:46.969Z,101215.08
2023-05-13T04:03:19.355Z,101216.02
2023-05-13T04:05:47.844Z,101216.91
2023-05-13T04:08:15.919Z,101215.84
2023-05-13T04:10:44.221Z,101214.65
2023-05-13T04:13:12.039Z,101216.58
2023-05-13T04:15:39.706Z,101211.27
2023-05-13T04:18:07.744Z,101212.27
2023-05-13T04:20:38.491Z,101215.92
2023-05-13T04:23:06.721Z,101211.59
2023-05-13T04:25:35.745Z,101217.98
2023-05-13T04:28:03.637Z,101220.09
2023-05-13T04:30:52.473Z,101222.92
2023-05-13T04:33:20.421Z,101221.39
2023-05-13T04:35:49.429Z,101226.73
2023-05-13T04:38:18.267Z,101228.36
2023-05-13T04:40:47.916Z,101228.23
2023-05-13T04:43:22.854Z,101230.52
2023-05-13T04:45:54.409Z,101229.69
2023-05-13T04:48:22.845Z,101232.29
2023-05-13T04:50:51.050Z,101232.31
2023-05-13T04:53:19.693Z,101236.66
2023-05-13T04:55:49.297Z,101239.64
2023-05-13T04:58:17.110Z,101243.63
2023-05-13T05:00:44.949Z,101242.85
2023-05-13T05:03:13.713Z,101247.21
2023-05-13T05:05:41.657Z,101247.47
2023-05-13T05:08:11.825Z,101243.70
2023-05-13T05:10:39.571Z,101246.02
2023-05-13T05:13:10.677Z,101244.87
2023-05-13T05:15:38.911Z,101248.96
2023-05-13T05:18:08.116Z,101253.02
2023-05-13T05:20:38.427Z,101246.07
2023-05-13T05:23:10.642Z,101245.39
2023-05-13T05:25:39.171Z,101237.16
2023-05-13T05:28:08.247Z,101235.15
2023-05-13T05:30:40.994Z,101233.75
2023-05-13T05:33:15.348Z,101234.80
2023-05-13T05:35:44.037Z,101239.52
2023-05-13T05:38:14.932Z,101235.27
2023-05-13T05:40:44.431Z,101240.61
2023-05-13T05:43:12.970Z,101236.14
2023-05-13T05:45:40.799Z,101239.77
2023-05-13T05:48:11.071Z,101242.18
2023-05-13T05:50:40.940Z,101249.58
2023-05-13T05:53:09.821Z,101246.73
2023-05-13T05:55:38.810Z,101246.39
2023-05-13T05:58:07.343Z,101247.20
2023-05-13T06:00:36.872Z,101244.10
2023-05-13T06:03:04.770Z,101238.41
2023-05-13T06:05:32.746Z,101239.21
2023-05-13T06:08:00.525Z,101240.04
2023-05-13T06:10:28.657Z,101242.63
2023-05-13T06:12:56.756Z,101235.45
2023-05-13T06:15:24.487Z,101233.40
2023-05-13T06:17:52.173Z,101226.55
2023-05-13T06:20:20.092Z,101227.16
2023-05-13T06:22:48.257Z,101221.98
2023-05-13T06:25:16.223Z,101226.69
2023-05-13T06:27:44.381Z,101225.20
2023-05-13T06:30:12.408Z,101227.82
2023-05-13T06:32:50.373Z,101226.54
2023-05-13T06:35:28.886Z,101228.80
2023-05-13T06:37:56.652Z,101226.08
2023-05-13T06:40:24.781Z,101224.80
2023-05-13T06:42:52.674Z,101223.52
2023-05-13T06:45:23.787Z,101222.27
2023-05-13T06:47:53.138Z,101224.23
2023-05-13T06:50:21.113Z,101226.70
2023-05-13T06:52:49.222Z,101223.23
2023-05-13T06:55:18.890Z,101227.91
2023-05-13T06:57:47.420Z,101226.53
2023-05-13T07:00:15.827Z,101221.91
2023-05-13T07:02:43.839Z,101220.59
2023-05-13T07:05:12.603Z,101217.69
2023-05-13T07:07:40.424Z,101214.27
2023-05-13T07:10:08.592Z,101216.13
2023-05-13T07:12:36.355Z,101215.48
2023-05-13T07:15:04.584Z,101213.59
2023-05-13T07:17:32.421Z,101213.45
2023-05-13T07:20:00.300Z,101219.11
2023-05-13T07:22:28.460Z,101216.74
2023-05-13T07:24:57.070Z,101214.23
2023-05-13T07:27:24.817Z,101213.33
2023-05-13T07:29:52.508Z,101211.91
2023-05-13T07:32:20.149Z,101212.95
2023-05-13T07:34:47.803Z,101211.60
2023-05-13T07:37:15.490Z,101210.67
2023-05-13T07:39:43.144Z,101210.81
2023-05-13T07:42:10.824Z,101207.88
2023-05-13T07:44:38.434Z,101206.94
2023-05-13T07:47:06.464Z,101204.06
2023-05-13T07:49:34.172Z,101204.74
2023-05-13T07:52:01.978Z,101198.39
2023-05-13T07:54:29.916Z,101200.38
2023-05-13T07:56:57.628Z,101202.45
2023-05-13T07:59:25.551Z,101199.38
2023-05-13T08:01:54.554Z,101201.67
2023-05-13T08:04:22.352Z,101201.37
2023-05-13T08:06:50.125Z,101197.54
2023-05-13T08:09:17.844Z,101196.09
2023-05-13T08:11:45.574Z,101192.94
2023-05-13T08:14:13.265Z,101191.47
2023-05-13T08:16:41.600Z,101186.64
2023-05-13T08:19:09.816Z,101185.60
2023-05-13T08:21:37.524Z,101177.98
2023-05-13T08:24:06.029Z,101180.08
2023-05-13T08:26:33.909Z,101183.35
2023-05-13T08:29:01.636Z,101184.66
2023-05-13T08:31:29.527Z,101185.10
2023-05-13T08:33:57.571Z,101182.00
2023-05-13T08:36:26.438Z,101183.69
2023-05-13T08:38:54.186Z,101180.53
2023-05-13T08:41:22.869Z,101184.34
2023-05-13T08:43:52.389Z,101178.42
2023-05-13T08:46:25.067Z,101177.79
2023-05-13T08:48:54.827Z,101179.02
2023-05-13T08:51:22.798Z,101175.77
2023-05-13T08:53:52.234Z,101178.05
2023-05-13T08:56:22.194Z,101177.54
2023-05-13T08:58:49.932Z,101174.11
2023-05-13T09:01:17.836Z,101171.09
2023-05-13T09:04:01.236Z,101169.34
2023-05-13T09:06:29.675Z,101173.05
2023-05-13T09:08:57.767Z,101169.15
2023-05-13T09:11:26.258Z,101170.42
2023-05-13T09:14:01.587Z,101168.52
2023-05-13T09:16:29.937Z,101169.17
2023-05-13T09:19:00.438Z,101165.96
2023-05-13T09:21:31.656Z,101164.52
2023-05-13T09:24:11.168Z,101165.50
2023-05-13T09:26:40.913Z,101164.63
2023-05-13T09:29:23.766Z,101161.94
2023-05-13T09:31:56.366Z,101160.81
2023-05-13T09:34:32.132Z,101162.95
2023-05-13T09:37:08.851Z,101162.39
2023-05-13T09:39:43.843Z,101154.02
2023-05-13T09:42:19.530Z,101152.13
2023-05-13T09:44:48.956Z,101154.04
2023-05-13T09:47:17.414Z,101149.02
2023-05-13T09:49:53.252Z,101142.60
2023-05-13T09:52:22.400Z,101139.28
2023-05-13T09:54:50.073Z,101144.48
2023-05-13T09:57:17.756Z,101133.31
2023-05-13T09:59:45.414Z,101134.89
2023-05-13T10:02:15.399Z,101130.66
2023-05-13T10:04:43.458Z,101134.52
2023-05-13T10:07:12.376Z,101127.58
2023-05-13T10:09:40.631Z,101125.75
2023-05-13T10:12:12.032Z,101123.46
2023-05-13T10:14:40.200Z,101114.75
2023-05-13T10:17:08.049Z,101118.73
2023-05-13T10:19:37.088Z,101115.09
2023-05-13T10:22:05.701Z,101115.52
2023-05-13T10:24:35.446Z,101114.65
2023-05-13T10:27:06.543Z,101102.80
2023-05-13T10:29:37.701Z,101099.16
2023-05-13T10:32:07.070Z,101106.35
2023-05-13T10:34:37.239Z,101106.54
2023-05-13T10:37:13.881Z,101111.74
2023-05-13T10:40:06.478Z,101112.66
2023-05-13T10:42:43.887Z,101112.77
2023-05-13T10:45:11.615Z,101108.25
2023-05-13T10:47:39.485Z,101102.52
2023-05-13T10:50:23.480Z,101097.69
2023-05-13T10:52:56.850Z,101098.59
2023-05-13T10:55:26.801Z,101098.94
2023-05-13T10:58:14.840Z,101099.92
2023-05-13T11:00:45.392Z,101096.73
2023-05-13T11:03:15.825Z,101100.01
2023-05-13T11:05:45.618Z,101093.41
2023-05-13T11:08:36.701Z,101091.80
2023-05-13T11:11:27.475Z,101095.97
2023-05-13T11:14:20.744Z,101095.20
2023-05-13T11:17:00.738Z,101094.85
2023-05-13T11:19:30.672Z,101095.36
2023-05-13T11:22:22.153Z,101099.20
2023-05-13T11:25:10.529Z,101096.95
2023-05-13T11:27:40.373Z,101097.09
2023-05-13T11:30:22.500Z,101096.48
2023-05-13T11:32:51.012Z,101090.51
2023-05-13T11:35:22.624Z,101091.27
2023-05-13T11:37:51.116Z,101094.77
2023-05-13T11:40:26.980Z,101088.30
2023-05-13T11:42:55.705Z,101086.15
2023-05-13T11:45:25.126Z,101083.08
2023-05-13T11:47:54.413Z,101081.73
2023-05-13T11:50:32.823Z,101080.77
2023-05-13T11:53:01.864Z,101078.96
2023-05-13T11:55:37.545Z,101075.79
2023-05-13T11:58:06.431Z,101075.97
2023-05-13T12:00:35.142Z,101069.40
2023-05-13T12:03:10.653Z,101071.88
2023-05-13T12:05:41.436Z,101070.15
2023-05-13T12:08:09.970Z,101075.79
2023-05-13T12:10:46.452Z,101069.83
2023-05-13T12:13:14.376Z,101066.77
2023-05-13T12:15:42.587Z,101061.39
2023-05-13T12:18:10.471Z,101065.23
2023-05-13T12:20:38.575Z,101066.83
2023-05-13T12:23:06.621Z,101068.89
2023-05-13T12:25:38.383Z,101062.45
2023-05-13T12:28:18.068Z,101059.86
2023-05-13T12:30:51.778Z,101057.72
2023-05-13T12:33:21.716Z,101058.23
2023-05-13T12:35:52.006Z,101056.48
2023-05-13T12:38:22.097Z,101062.70
2023-05-13T12:40:50.692Z,101065.11
2023-05-13T12:43:19.725Z,101064.73
2023-05-13T12:45:52.604Z,101058.38
2023-05-13T12:48:23.899Z,101056.20
2023-05-13T12:50:51.620Z,101057.36
2023-05-13T12:53:19.247Z,101059.13
2023-05-13T12:55:46.950Z,101058.80
2023-05-13T12:58:14.641Z,101056.77
2023-05-13T13:00:42.641Z,101057.64
2023-05-13T13:03:11.070Z,101057.38
2023-05-13T13:05:38.818Z,101059.29
2023-05-13T13:08:06.579Z,101057.45
2023-05-13T13:10:34.917Z,101052.58
2023-05-13T13:13:02.658Z,101052.73
2023-05-13T13:15:30.691Z,101052.80
2023-05-13T13:17:58.494Z,101045.06
2023-05-13T13:20:26.345Z,101041.33
2023-05-13T13:22:54.696Z,101040.35
2023-05-13T13:25:22.762Z,101044.32
2023-05-13T13:27:50.925Z,101044.61
2023-05-13T13:30:18.571Z,101041.75
2023-05-13T13:32:46.251Z,101044.98
2023-05-13T13:35:13.905Z,101045.10
2023-05-13T13:37:41.597Z,101036.08
2023-05-13T13:40:10.001Z,101044.02
2023-05-13T13:42:44.199Z,101035.41
2023-05-13T13:45:13.732Z,101032.91
2023-05-13T13:47:42.920Z,101033.39
2023-05-13T13:50:10.936Z,101029.06
2023-05-13T13:52:38.738Z,101025.77
2023-05-13T13:55:07.421Z,101026.81
2023-05-13T13:57:35.362Z,101019.70
2023-05-13T14:00:03.555Z,101017.14
2023-05-13T14:02:32.652Z,101014.88
2023-05-13T14:05:00.581Z,101018.50
2023-05-13T14:07:28.452Z,101014.84
2023-05-13T14:09:56.287Z,101013.02
2023-05-13T14:12:25.355Z,101017.85
2023-05-13T14:14:53.033Z,101013.14
2023-05-13T14:17:20.998Z,101012.21
2023-05-13T14:19:51.673Z,101014.42
2023-05-13T14:22:19.367Z,101016.48
2023-05-13T14:24:47.360Z,101017.36
2023-05-13T14:27:15.093Z,101018.39
2023-05-13T14:29:42.812Z,101010.03
2023-05-13T14:32:10.499Z,101009.26
2023-05-13T14:34:38.207Z,101011.17
2023-05-13T14:37:05.955Z,101008.54
2023-05-13T14:39:33.773Z,101008.27
2023-05-13T14:42:01.820Z,101011.55
2023-05-13T14:44:29.510Z,101015.86
2023-05-13T14:46:57.414Z,101013.69
2023-05-13T14:49:25.343Z,101010.84
2023-05-13T14:51:53.032Z,101014.02
2023-05-13T14:54:22.145Z,101017.13
2023-05-13T14:56:52.156Z,101013.34
2023-05-13T14:59:19.926Z,101016.94
2023-05-13T15:01:47.781Z,101020.94
2023-05-13T15:04:15.507Z,101022.21
2023-05-13T15:06:43.773Z,101016.27
2023-05-13T15:09:11.482Z,101018.45
2023-05-13T15:11:42.186Z,101016.15
2023-05-13T15:14:09.964Z,101012.21
2023-05-13T15:16:37.941Z,101018.28
2023-05-13T15:19:07.496Z,101015.30
2023-05-13T15:21:35.470Z,101019.03
2023-05-13T15:24:03.621Z,101017.04
2023-05-13T15:26:31.563Z,101015.44
2023-05-13T15:28:59.232Z,101014.00
2023-05-13T15:31:26.974Z,101012.75
2023-05-13T15:33:54.778Z,101005.63
2023-05-13T15:36:22.502Z,101008.31
2023-05-13T15:38:50.306Z,101010.77
2023-05-13T15:41:17.938Z,101006.88
2023-05-13T15:43:45.625Z,101001.60
2023-05-13T15:46:13.504Z,101000.89
2023-05-13T15:48:41.307Z,100997.95
2023-05-13T15:51:09.144Z,100997.42
2023-05-13T15:53:36.873Z,100999.77
2023-05-13T15:56:04.949Z,100999.70
2023-05-13T15:58:32.646Z,100997.45
2023-05-13T16:01:00.578Z,100991.70
2023-05-13T16:03:28.488Z,100993.60
2023-05-13T16:05:56.295Z,100991.73
2023-05-13T16:08:24.227Z,100990.80
2023-05-13T16:10:51.865Z,100987.83
2023-05-13T16:13:20.559Z,100988.13
2023-05-13T16:15:48.207Z,100988.74
2023-05-13T16:18:15.989Z,100987.44
2023-05-13T16:20:44.295Z,100988.90
2023-05-13T16:23:11.997Z,100982.12
2023-05-13T16:25:39.955Z,100984.06
2023-05-13T16:28:07.562Z,100983.35
2023-05-13T16:30:35.749Z,100989.27
2023-05-13T16:33:03.618Z,100990.14
2023-05-13T16:35:31.366Z,100993.02
2023-05-13T16:37:59.013Z,100987.59
2023-05-13T16:40:26.788Z,100990.70
2023-05-13T16:42:57.048Z,100991.80
2023-05-13T16:45:26.785Z,100991.55
2023-05-13T16:47:54.580Z,100992.02
2023-05-13T16:50:23.064Z,100991.91
2023-05-13T16:52:50.839Z,100989.28
2023-05-13T16:55:18.493Z,100990.75
2023-05-13T16:57:46.841Z,100990.98
2023-05-13T17:00:16.059Z,100992.92
2023-05-13T17:02:43.832Z,100994.02
2023-05-13T17:05:11.594Z,100994.70
2023-05-13T17:07:39.623Z,100994.00
2023-05-13T17:10:07.945Z,100993.52
2023-05-13T17:12:35.580Z,100993.52
2023-05-13T17:15:04.163Z,100999.92
2023-05-13T17:17:31.961Z,101002.05
2023-05-13T17:19:59.899Z,101005.63
2023-05-13T17:22:27.855Z,101013.92
2023-05-13T17:24:56.110Z,101019.23
2023-05-13T17:27:23.832Z,101022.91
2023-05-13T17:29:51.573Z,101026.34
2023-05-13T17:32:19.434Z,101032.52
2023-05-13T17:34:47.050Z,101027.91
2023-05-13T17:37:14.802Z,101034.43
2023-05-13T17:39:42.782Z,101034.06
2023-05-13T17:42:10.586Z,101039.56
2023-05-13T17:44:38.272Z,101040.41
2023-05-13T17:47:06.209Z,101038.56
2023-05-13T17:49:33.856Z,101035.70
2023-05-13T17:52:01.494Z,101025.45
2023-05-13T17:54:29.173Z,101026.49
2023-05-13T17:56:56.885Z,101024.68
2023-05-13T17:59:24.623Z,101027.92
2023-05-13T18:01:52.378Z,101024.14
2023-05-13T18:04:20.283Z,101025.58
2023-05-13T18:06:48.425Z,101028.41
2023-05-13T18:09:16.064Z,101030.67
2023-05-13T18:11:44.345Z,101031.45
2023-05-13T18:14:12.135Z,101033.20
2023-05-13T18:16:39.914Z,101035.87
2023-05-13T18:19:07.785Z,101035.81
2023-05-13T18:21:35.587Z,101037.09
2023-05-13T18:24:04.946Z,101033.89
2023-05-13T18:26:32.738Z,101037.69
2023-05-13T18:29:00.591Z,101038.61
2023-05-13T18:31:28.489Z,101043.85
2023-05-13T18:33:56.154Z,101041.30
2023-05-13T18:36:23.850Z,101044.29
2023-05-13T18:38:53.900Z,101045.17
2023-05-13T18:41:22.477Z,101048.48
2023-05-13T18:43:50.499Z,101050.31
2023-05-13T18:46:18.477Z,101055.05
2023-05-13T18:48:46.530Z,101054.36
2023-05-13T18:51:16.406Z,101053.04
2023-05-13T18:53:45.297Z,101054.59
2023-05-13T18:56:13.294Z,101051.09
2023-05-13T18:58:41.073Z,101052.11
2023-05-13T19:01:08.816Z,101054.08
2023-05-13T19:03:37.038Z,101052.74
2023-05-13T19:06:04.988Z,101055.13
2023-05-13T19:08:32.670Z,101049.98
2023-05-13T19:11:00.602Z,101051.42
2023-05-13T19:13:39.411Z,101050.80
2023-05-13T19:16:14.738Z,101056.29
2023-05-13T19:18:42.662Z,101054.39
2023-05-13T19:21:10.729Z,101052.92
2023-05-13T19:23:38.534Z,101054.77
2023-05-13T19:26:06.363Z,101057.66
2023-05-13T19:28:34.837Z,101058.77
2023-05-13T19:31:04.298Z,101059.31
2023-05-13T19:33:32.178Z,101059.97
2023-05-13T19:35:59.944Z,101060.26
2023-05-13T19:38:27.688Z,101065.73
2023-05-13T19:40:55.475Z,101062.96
2023-05-13T19:43:24.547Z,101069.52
2023-05-13T19:45:55.732Z,101069.91
2023-05-13T19:48:23.660Z,101070.50
2023-05-13T19:50:53.530Z,101070.91
2023-05-13T19:53:22.096Z,101068.31
2023-05-13T19:55:50.159Z,101074.07
2023-05-13T19:58:18.010Z,101074.72
2023-05-13T20:00:46.435Z,101078.80
2023-05-13T20:03:14.628Z,101078.66
2023-05-13T20:05:42.554Z,101082.16
2023-05-13T20:08:10.368Z,101080.27
2023-05-13T20:10:38.057Z,101080.17
2023-05-13T20:13:07.189Z,101079.98
2023-05-13T20:15:34.931Z,101080.23
2023-05-13T20:18:02.621Z,101078.30
2023-05-13T20:20:30.357Z,101076.57
2023-05-13T20:22:58.031Z,101075.92
2023-05-13T20:25:25.937Z,101075.35
2023-05-13T20:27:53.604Z,101075.70
2023-05-13T20:30:21.871Z,101079.30
2023-05-13T20:32:49.842Z,101078.15
2023-05-13T20:35:17.765Z,101077.63
2023-05-13T20:37:45.421Z,101078.27
2023-05-13T20:40:13.153Z,101076.70
2023-05-13T20:42:41.435Z,101076.85
2023-05-13T20:45:09.326Z,101078.83
2023-05-13T20:47:37.072Z,101079.55
2023-05-13T20:50:05.666Z,101079.44
2023-05-13T20:52:33.720Z,101079.80
2023-05-13T20:55:01.472Z,101079.64
2023-05-13T20:57:31.337Z,101079.63
2023-05-13T20:59:59.052Z,101077.23
2023-05-13T21:02:26.780Z,101073.98
2023-05-13T21:04:54.445Z,101076.86
2023-05-13T21:07:22.105Z,101076.76
2023-05-13T21:09:49.823Z,101076.02
2023-05-13T21:12:17.493Z,101076.70
2023-05-13T21:14:45.220Z,101077.72
2023-05-13T21:17:12.866Z,101081.08
2023-05-13T21:19:40.612Z,101082.63
2023-05-13T21:22:08.249Z,101083.39
2023-05-13T21:24:35.964Z,101079.65
2023-05-13T21:27:03.817Z,101080.20
2023-05-13T21:29:31.588Z,101076.36
2023-05-13T21:31:59.492Z,101077.88
2023-05-13T21:34:27.199Z,101078.20
2023-05-13T21:36:54.929Z,101077.54
2023-05-13T21:39:22.745Z,101078.70
2023-05-13T21:41:50.428Z,101078.02
2023-05-13T21:44:18.086Z,101073.03
2023-05-13T21:46:45.991Z,101071.41
2023-05-13T21:49:13.780Z,101073.69
2023-05-13T21:51:41.422Z,101073.28
2023-05-13T21:54:09.194Z,101072.20
2023-05-13T21:56:36.846Z,101075.89
2023-05-13T21:59:04.563Z,101073.38
2023-05-13T22:01:32.363Z,101070.95
2023-05-13T22:04:00.421Z,101069.67
2023-05-13T22:06:28.069Z,101076.63
2023-05-13T22:08:55.854Z,101076.19
2023-05-13T22:11:23.753Z,101077.45
2023-05-13T22:13:51.443Z,101076.07
2023-05-13T22:16:19.134Z,101075.12
2023-05-13T22:18:48.803Z,101071.90
2023-05-13T22:21:16.731Z,101070.77
2023-05-13T22:23:44.462Z,101070.27
2023-05-13T22:26:12.217Z,101069.27
2023-05-13T22:28:39.994Z,101067.17
2023-05-13T22:31:08.378Z,101070.36
2023-05-13T22:33:36.104Z,101071.95
2023-05-13T22:36:04.008Z,101072.94
2023-05-13T22:38:32.132Z,101075.53
2023-05-13T22:44:22.828Z,101073.81
2023-05-13T22:46:52.837Z,101073.45
2023-05-13T22:49:20.857Z,101074.13
2023-05-13T22:51:48.546Z,101072.20
2023-05-13T22:54:16.185Z,101073.05
2023-05-13T22:56:43.932Z,101073.17
2023-05-13T22:59:11.772Z,101072.88
2023-05-13T23:01:39.544Z,101072.13
2023-05-13T23:04:07.415Z,101078.38
2023-05-13T23:06:35.270Z,101076.52
2023-05-13T23:09:03.025Z,101078.61
2023-05-13T23:11:30.819Z,101075.76
2023-05-13T23:13:58.484Z,101076.19
2023-05-13T23:16:26.408Z,101082.46
2023-05-13T23:18:55.863Z,101083.74
2023-05-13T23:21:23.587Z,101086.45
2023-05-13T23:23:52.125Z,101080.38
2023-05-13T23:26:20.192Z,101081.33
2023-05-13T23:28:47.841Z,101085.84
2023-05-13T23:31:16.554Z,101081.07
2023-05-13T23:33:44.396Z,101080.17
2023-05-13T23:36:12.542Z,101075.45
2023-05-13T23:38:41.895Z,101077.10
2023-05-13T23:41:09.591Z,101074.36
2023-05-13T23:43:37.398Z,101071.19
2023-05-13T23:46:05.627Z,101070.97
2023-05-13T23:48:33.419Z,101068.85
2023-05-13T23:51:01.426Z,101066.84
2023-05-13T23:53:29.148Z,101073.15
2023-05-13T23:55:57.315Z,101069.70
2023-05-13T23:58:26.295Z,101069.41
